Terminal Aerodrome Forecast
Issued by NWS

Home | Current Version | Previous Version | Text Only | Print | Product List | Glossary On
Versions: 1 2 3 4 5 6 7 8 9 10 11 12 13 14 15 16 17 18
000
FTUS43 KDVN 201139
TAFBRL
TAF
KBRL 201139Z 2012/2112 09009KT P6SM VCSH OVC080
     FM201400 07007KT 6SM -RA BR SCT020 OVC040
     FM202100 04007KT P6SM VCSH OVC035
     FM210000 01004KT P6SM SCT035 OVC080
     FM210800 30003KT P6SM SCT080 BKN120=

USA.gov is the U.S. government's official web portal to all federal, state and local government web resources and services.